Time;durP1;ratioP1;P1;durP2;ratioP2;P2;SDS_P1;SDS_P2;PMS_P1;PMS_P2;Temp;Humidity;BMP_temperature;BMP_pressure;BME280_temperature;BME280_humidity;BME280_pressure;Samples;Min_cycle;Max_cycle;Signal;HPM_P1;HPM_P2
2022/12/30 00:02:07;;;;;;;12.30;7.10;;;;;;;5.53;65.76;96513.46;105847;1294;22726;-83
2022/12/30 00:04:40;;;;;;;11.30;6.20;;;;;;;5.53;65.74;96511.83;105670;1301;23048;-84
2022/12/30 00:07:11;;;;;;;10.50;6.80;;;;;;;5.57;65.64;96507.02;105755;1288;23822;-83
2022/12/30 00:09:42;;;;;;;11.10;5.40;;;;;;;5.59;65.42;96513.04;105716;1301;57200;-83
2022/12/30 00:35:10;;;;;;;11.20;6.00;;;;;;;5.56;65.14;96509.07;105584;1302;22486;-83
2022/12/30 00:37:44;;;;;;;11.30;6.70;;;;;;;5.56;65.18;96503.71;105535;1302;22531;-85
2022/12/30 00:40:16;;;;;;;11.10;6.20;;;;;;;5.57;64.97;96502.44;105570;1298;65536;-84
2022/12/30 00:45:36;;;;;;;9.60;5.60;;;;;;;5.64;64.82;96507.31;105810;1300;22467;-83
2022/12/30 00:56:34;;;;;;;9.30;5.90;;;;;;;5.73;64.57;96501.70;105687;1301;22515;-83
2022/12/30 00:59:08;;;;;;;13.30;6.00;;;;;;;5.72;64.70;96499.06;105722;1302;24813;-83
2022/12/30 01:01:39;;;;;;;11.80;5.50;;;;;;;5.68;64.73;96494.14;105693;1302;52987;-83
2022/12/30 01:04:11;;;;;;;9.20;5.50;;;;;;;5.66;64.62;96492.18;105777;1301;24877;-84
2022/12/30 01:06:42;;;;;;;9.30;5.10;;;;;;;5.66;64.70;96491.08;105786;1302;22486;-84
2022/12/30 01:09:13;;;;;;;7.50;4.30;;;;;;;5.67;64.69;96493.88;105733;1301;55859;-83
2022/12/30 01:12:07;;;;;;;9.50;4.80;;;;;;;5.70;64.71;96492.58;105747;1294;22596;-84
2022/12/30 01:14:39;;;;;;;9.50;5.90;;;;;;;5.75;64.50;96487.63;105739;1286;22464;-84
2022/12/30 01:17:13;;;;;;;9.20;5.40;;;;;;;5.77;64.46;96485.96;105713;1302;23717;-83
2022/12/30 01:19:44;;;;;;;10.10;5.40;;;;;;;5.75;64.48;96480.67;105677;1297;27222;-84
2022/12/30 01:22:16;;;;;;;9.00;5.00;;;;;;;5.74;64.46;96478.72;105594;1287;23317;-84
2022/12/30 01:24:49;;;;;;;7.90;4.90;;;;;;;5.75;64.46;96477.58;105671;1294;22737;-84
2022/12/30 01:27:20;;;;;;;8.70;5.30;;;;;;;5.77;64.52;96475.38;105717;1302;22479;-83
2022/12/30 01:29:52;;;;;;;9.10;5.20;;;;;;;5.79;64.30;96470.37;105626;1281;53150;-83
2022/12/30 01:32:24;;;;;;;8.20;5.40;;;;;;;5.81;64.39;96475.73;105696;1302;23752;-84
2022/12/30 01:34:58;;;;;;;8.50;4.50;;;;;;;5.80;64.24;96472.52;105698;1288;22486;-84
2022/12/30 01:37:30;;;;;;;8.20;5.40;;;;;;;5.80;64.31;96472.21;105690;1302;22645;-84
2022/12/30 01:40:01;;;;;;;9.00;5.00;;;;;;;5.81;64.14;96468.27;105665;1294;26863;-83
2022/12/30 01:42:38;;;;;;;11.60;4.90;;;;;;;5.81;64.23;96461.80;105699;1302;22480;-83
2022/12/30 01:45:21;;;;;;;9.90;5.00;;;;;;;5.82;64.21;96459.54;105691;1290;22479;-83
2022/12/30 01:47:57;;;;;;;9.30;5.40;;;;;;;5.80;64.23;96460.02;105737;1302;22894;-83
2022/12/30 01:50:34;;;;;;;9.50;5.60;;;;;;;5.77;64.18;96457.77;105687;1295;41841;-83
2022/12/30 01:53:10;;;;;;;9.30;5.40;;;;;;;5.75;64.22;96459.89;105779;1279;23197;-83
2022/12/30 01:55:47;;;;;;;11.20;4.90;;;;;;;5.74;64.19;96450.31;104718;1302;1465504;-83
2022/12/30 01:58:23;;;;;;;9.70;5.90;;;;;;;5.75;64.22;96454.42;105734;1303;22684;-82
2022/12/30 02:00:54;;;;;;;8.40;5.20;;;;;;;5.76;64.27;96456.48;105503;1303;28149;-83
2022/12/30 02:03:30;;;;;;;9.20;5.30;;;;;;;5.78;64.19;96454.13;105562;1282;25375;-83
2022/12/30 02:06:02;;;;;;;10.90;5.90;;;;;;;5.82;63.92;96458.70;105684;1302;22468;-83
2022/12/30 02:08:35;;;;;;;8.40;5.70;;;;;;;5.87;63.87;96454.42;105589;1296;22561;-83
2022/12/30 02:11:11;;;;;;;10.60;5.70;;;;;;;5.89;63.92;96455.70;105646;1302;50934;-83
2022/12/30 02:13:42;;;;;;;9.70;5.30;;;;;;;5.89;63.77;96451.33;105662;1302;25259;-82
2022/12/30 02:16:37;;;;;;;7.00;3.80;;;;;;;5.89;63.72;96446.86;105662;1287;26771;-83
2022/12/30 02:19:34;;;;;;;8.70;5.10;;;;;;;5.90;63.65;96437.79;105591;1301;22454;-83
2022/12/30 02:22:12;;;;;;;7.50;3.60;;;;;;;5.90;63.54;96436.52;105440;1280;25088;-83
2022/12/30 02:25:25;;;;;;;9.00;5.30;;;;;;;5.94;63.16;96435.14;105788;1303;22956;-84
2022/12/30 02:28:34;;;;;;;8.80;5.30;;;;;;;6.04;63.30;96427.73;105659;1292;22489;-83
2022/12/30 02:31:27;;;;;;;9.20;5.00;;;;;;;6.08;62.79;96421.45;105684;1288;26757;-83
2022/12/30 02:34:06;;;;;;;8.80;5.10;;;;;;;6.09;62.67;96423.45;105766;1301;22516;-83
2022/12/30 02:36:47;;;;;;;9.00;4.90;;;;;;;6.11;62.43;96421.58;105691;1302;25399;-83
2022/12/30 02:39:32;;;;;;;7.30;3.60;;;;;;;6.12;62.54;96414.16;105659;1301;47554;-83
2022/12/30 02:45:09;;;;;;;8.50;4.50;;;;;;;6.10;62.43;96415.20;105775;1302;22460;-83
2022/12/30 02:47:44;;;;;;;8.20;5.00;;;;;;;6.11;62.32;96409.41;105847;1281;26514;-83
2022/12/30 02:53:11;;;;;;;8.20;5.00;;;;;;;6.11;62.09;96411.95;105721;1302;22526;-82
2022/12/30 02:55:42;;;;;;;8.70;4.20;;;;;;;6.11;62.05;96408.84;105727;1295;23019;-82
2022/12/30 02:58:13;;;;;;;8.10;4.20;;;;;;;6.11;62.07;96421.15;105655;1301;28723;-82
2022/12/30 03:04:00;;;;;;;7.00;4.60;;;;;;;6.26;61.64;96414.02;105867;1278;24963;-83
2022/12/30 03:06:55;;;;;;;7.00;4.00;;;;;;;6.33;61.49;96419.54;105798;1301;23973;-83
2022/12/30 03:09:40;;;;;;;5.00;2.90;;;;;;;6.41;61.26;96419.79;105794;1301;23160;-82
2022/12/30 03:12:23;;;;;;;7.40;3.90;;;;;;;6.55;60.51;96419.02;105808;1300;22474;-83
2022/12/30 03:15:00;;;;;;;6.60;3.90;;;;;;;6.70;60.01;96428.14;105810;1301;22555;-83
2022/12/30 03:17:34;;;;;;;6.60;4.00;;;;;;;6.79;59.58;96424.16;105765;1301;25570;-83
2022/12/30 03:20:10;;;;;;;7.10;4.00;;;;;;;6.85;59.58;96424.50;105732;1278;24943;-83
2022/12/30 03:28:21;;;;;;;9.10;4.40;;;;;;;6.93;58.82;96434.92;105646;1284;37744;-83
2022/12/30 03:30:55;;;;;;;7.30;3.70;;;;;;;6.92;58.62;96430.39;105696;1287;22516;-84
2022/12/30 03:33:28;;;;;;;7.20;4.40;;;;;;;6.90;58.61;96439.86;105701;1295;22489;-84
2022/12/30 03:36:09;;;;;;;6.80;4.00;;;;;;;6.87;58.31;96430.62;105698;1278;24474;-83
2022/12/30 03:38:45;;;;;;;6.10;3.50;;;;;;;6.87;58.51;96431.35;105650;1302;22544;-83
2022/12/30 03:41:19;;;;;;;5.90;3.80;;;;;;;6.86;58.08;96434.57;105718;1278;22474;-84
2022/12/30 03:43:50;;;;;;;7.30;4.20;;;;;;;6.86;58.09;96440.42;105663;1302;22465;-84
2022/12/30 03:46:26;;;;;;;5.40;3.30;;;;;;;6.88;58.07;96435.67;105760;1302;22473;-84
2022/12/30 03:48:57;;;;;;;6.80;4.60;;;;;;;6.85;58.04;96438.99;105700;1293;22773;-83
2022/12/30 03:51:28;;;;;;;7.90;4.20;;;;;;;6.85;58.19;96438.79;105687;1302;22514;-83
2022/12/30 03:54:00;;;;;;;7.70;4.00;;;;;;;6.86;57.95;96441.58;105845;1294;25387;-83
2022/12/30 03:56:31;;;;;;;7.90;4.00;;;;;;;6.85;58.01;96442.38;105679;1302;23276;-83
2022/12/30 03:59:02;;;;;;;7.20;4.00;;;;;;;6.88;57.79;96447.52;105713;1278;22477;-83
2022/12/30 04:01:33;;;;;;;4.60;3.00;;;;;;;6.89;57.97;96447.17;105730;1292;26789;-84
2022/12/30 04:04:06;;;;;;;5.60;2.90;;;;;;;6.93;57.34;96447.58;105798;1295;22496;-84
2022/12/30 04:06:38;;;;;;;6.60;3.60;;;;;;;7.09;56.72;96451.52;105717;1302;25241;-84
2022/12/30 04:09:11;;;;;;;6.00;3.50;;;;;;;7.14;56.89;96464.44;105726;1287;32445;-84
2022/12/30 04:11:42;;;;;;;7.20;3.40;;;;;;;7.19;56.28;96461.82;105722;1300;38905;-83
2022/12/30 04:14:14;;;;;;;4.50;2.20;;;;;;;7.33;55.99;96465.55;105761;1303;22721;-84
2022/12/30 04:16:45;;;;;;;7.70;3.40;;;;;;;7.44;55.48;96466.52;105655;1301;23268;-85
2022/12/30 04:19:16;;;;;;;6.70;3.90;;;;;;;7.41;55.97;96470.47;105617;1302;28911;-84
2022/12/30 04:21:48;;;;;;;7.60;4.30;;;;;;;7.26;56.05;96475.60;105583;1291;22480;-85
2022/12/30 04:24:19;;;;;;;8.30;3.70;;;;;;;7.12;56.35;96484.20;105670;1302;24260;-84
2022/12/30 04:26:50;;;;;;;6.60;3.20;;;;;;;7.07;56.52;96489.73;105598;1302;24507;-85
2022/12/30 04:29:21;;;;;;;6.60;3.30;;;;;;;7.11;56.52;96496.18;105745;1280;28605;-84
2022/12/30 04:31:52;;;;;;;5.30;3.60;;;;;;;7.09;56.80;96500.86;105716;1301;25217;-85
2022/12/30 04:34:23;;;;;;;6.90;3.80;;;;;;;7.05;56.82;96505.23;105838;1300;22593;-85
2022/12/30 04:36:54;;;;;;;6.30;3.80;;;;;;;7.00;57.01;96510.36;105839;1301;22670;-85
2022/12/30 04:39:25;;;;;;;6.10;3.80;;;;;;;6.94;57.13;96515.52;105683;1296;47808;-85
2022/12/30 04:41:56;;;;;;;6.70;3.90;;;;;;;6.87;57.30;96517.37;105762;1300;22473;-84
2022/12/30 04:44:27;;;;;;;7.10;3.80;;;;;;;6.81;57.43;96521.98;105821;1289;22473;-84
2022/12/30 04:46:59;;;;;;;6.30;3.50;;;;;;;6.78;57.77;96521.08;105718;1301;23236;-84
2022/12/30 04:49:32;;;;;;;7.60;3.70;;;;;;;6.72;57.97;96516.50;105704;1281;66403;-85
2022/12/30 04:52:03;;;;;;;6.60;3.70;;;;;;;6.64;58.30;96523.05;105719;1301;64406;-84
2022/12/30 04:54:34;;;;;;;7.20;3.60;;;;;;;6.57;58.38;96522.73;105777;1290;22501;-84
2022/12/30 04:57:06;;;;;;;7.60;4.20;;;;;;;6.51;58.46;96524.04;105740;1301;22497;-84
2022/12/30 04:59:37;;;;;;;5.50;3.40;;;;;;;6.51;58.36;96529.61;105702;1297;30774;-84
2022/12/30 05:02:12;;;;;;;8.20;3.70;;;;;;;6.46;58.77;96532.09;105810;1300;23001;-84
2022/12/30 05:04:43;;;;;;;9.10;4.80;;;;;;;6.41;58.88;96528.43;105802;1302;25232;-85
2022/12/30 05:07:14;;;;;;;16.20;8.60;;;;;;;6.33;59.29;96531.42;105763;1301;22466;-84
2022/12/30 05:09:45;;;;;;;11.40;5.90;;;;;;;6.24;59.41;96534.10;105752;1294;24123;-84
2022/12/30 05:12:16;;;;;;;7.70;4.70;;;;;;;6.19;59.77;96538.11;105803;1301;22465;-84
2022/12/30 05:14:48;;;;;;;10.10;5.10;;;;;;;6.15;59.95;96541.30;105771;1301;25496;-84
2022/12/30 05:17:20;;;;;;;8.30;4.40;;;;;;;6.14;59.94;96542.97;105767;1279;23779;-84
2022/12/30 05:19:51;;;;;;;7.70;4.50;;;;;;;6.14;60.07;96542.45;105695;1275;40083;-84
2022/12/30 05:22:22;;;;;;;7.80;4.60;;;;;;;6.15;60.20;96548.18;105732;1302;25332;-84
2022/12/30 05:27:42;;;;;;;6.60;3.60;;;;;;;6.11;60.60;96554.59;105681;1289;22507;-84
2022/12/30 05:30:17;;;;;;;6.60;3.70;;;;;;;6.06;60.79;96559.02;105674;1301;52189;-84
2022/12/30 05:32:48;;;;;;;5.90;3.60;;;;;;;6.01;61.01;96563.65;105857;1293;22592;-84
2022/12/30 05:35:20;;;;;;;8.20;4.20;;;;;;;5.96;61.21;96566.93;105827;1295;22462;-84
2022/12/30 05:37:50;;;;;;;7.40;4.10;;;;;;;5.93;61.14;96572.27;105755;1294;23831;-84
2022/12/30 05:40:22;;;;;;;6.80;3.90;;;;;;;5.92;61.25;96578.98;105736;1294;34706;-83
2022/12/30 05:42:53;;;;;;;7.30;4.00;;;;;;;5.86;61.25;96580.27;105681;1302;22571;-84
2022/12/30 05:45:26;;;;;;;6.90;4.30;;;;;;;5.81;61.65;96584.50;105767;1302;23988;-84
2022/12/30 05:47:57;;;;;;;8.00;4.30;;;;;;;5.77;61.67;96587.35;105734;1287;22509;-84
2022/12/30 05:50:28;;;;;;;6.60;3.80;;;;;;;5.72;61.91;96586.86;105663;1302;22508;-83
2022/12/30 05:52:59;;;;;;;6.80;4.20;;;;;;;5.66;62.11;96596.12;105699;1302;22483;-83
2022/12/30 05:55:30;;;;;;;6.00;4.00;;;;;;;5.61;62.53;96600.27;105685;1302;22470;-83
2022/12/30 05:58:04;;;;;;;5.70;3.60;;;;;;;5.60;62.67;96600.77;105726;1281;22477;-83
2022/12/30 06:00:35;;;;;;;7.30;4.00;;;;;;;5.62;62.58;96602.16;105711;1302;27047;-83
2022/12/30 06:03:06;;;;;;;7.60;5.00;;;;;;;5.62;62.81;96603.10;105682;1302;24366;-83
2022/12/30 06:05:41;;;;;;;8.30;4.50;;;;;;;5.63;62.60;96601.02;105594;1293;22510;-83
2022/12/30 06:08:13;;;;;;;6.70;4.50;;;;;;;5.67;62.79;96604.34;105667;1295;22501;-83
2022/12/30 06:10:46;;;;;;;6.00;3.70;;;;;;;5.73;62.92;96604.96;105697;1295;41789;-83
2022/12/30 06:13:20;;;;;;;6.40;4.10;;;;;;;5.81;63.01;96603.65;105717;1302;22791;-83
2022/12/30 06:15:51;;;;;;;6.70;4.20;;;;;;;5.91;62.73;96602.27;105797;1278;22562;-83
2022/12/30 06:18:25;;;;;;;7.00;4.20;;;;;;;6.01;62.79;96605.33;105741;1294;23182;-83
2022/12/30 06:20:58;;;;;;;8.00;3.90;;;;;;;6.08;62.55;96608.09;105627;1302;60934;-83
2022/12/30 06:23:30;;;;;;;8.10;4.30;;;;;;;6.13;62.52;96610.45;105739;1302;23784;-83
2022/12/30 06:26:01;;;;;;;7.90;4.40;;;;;;;6.16;62.59;96611.25;105826;1301;22562;-83
2022/12/30 06:28:32;;;;;;;9.40;4.70;;;;;;;6.18;62.46;96616.54;105845;1301;23655;-84
2022/12/30 06:31:03;;;;;;;7.90;4.20;;;;;;;6.17;62.48;96621.69;105701;1301;25868;-83
2022/12/30 06:33:34;;;;;;;7.80;4.40;;;;;;;6.18;62.51;96622.91;105759;1302;22509;-83
2022/12/30 06:36:06;;;;;;;9.60;4.60;;;;;;;6.19;62.61;96625.61;105738;1297;22481;-83
2022/12/30 06:38:38;;;;;;;7.10;4.50;;;;;;;6.20;62.53;96631.79;105738;1302;22702;-84
2022/12/30 06:41:09;;;;;;;7.00;4.10;;;;;;;6.22;62.54;96640.71;105772;1303;25411;-82
2022/12/30 06:43:40;;;;;;;7.00;4.80;;;;;;;6.28;62.34;96646.06;105771;1291;22692;-84
2022/12/30 06:46:11;;;;;;;7.00;4.20;;;;;;;6.33;62.28;96651.75;105870;1302;24260;-84
2022/12/30 06:48:44;;;;;;;7.70;5.00;;;;;;;6.40;62.03;96658.77;105789;1300;23395;-84
2022/12/30 06:51:15;;;;;;;8.20;4.20;;;;;;;6.43;62.05;96669.06;105844;1301;22638;-84
2022/12/30 06:53:47;;;;;;;6.70;3.90;;;;;;;6.43;62.07;96674.27;105733;1301;22476;-84
2022/12/30 06:56:19;;;;;;;8.20;4.70;;;;;;;6.42;62.21;96686.54;105762;1302;22523;-84
2022/12/30 06:58:50;;;;;;;7.40;4.30;;;;;;;6.44;62.33;96688.19;105674;1293;30041;-83
2022/12/30 07:01:23;;;;;;;7.70;4.20;;;;;;;6.45;62.28;96695.98;105706;1302;23317;-84
2022/12/30 07:03:57;;;;;;;6.90;4.70;;;;;;;6.47;62.15;96705.59;105694;1302;26488;-84
2022/12/30 07:06:28;;;;;;;7.20;4.40;;;;;;;6.47;62.27;96708.59;105725;1300;25365;-84
2022/12/30 07:08:59;;;;;;;8.40;5.10;;;;;;;6.48;62.22;96718.67;105734;1285;31795;-83
2022/12/30 07:11:31;;;;;;;9.00;5.40;;;;;;;6.46;62.58;96721.17;105690;1294;52627;-83
2022/12/30 07:14:02;;;;;;;7.80;4.80;;;;;;;6.44;62.85;96728.31;105670;1298;22467;-83
2022/12/30 07:16:33;;;;;;;9.50;5.30;;;;;;;6.38;63.15;96723.69;105749;1300;22506;-83
2022/12/30 07:19:05;;;;;;;8.50;5.30;;;;;;;6.33;63.47;96728.09;105736;1279;22459;-83
2022/12/30 07:21:37;;;;;;;8.70;5.40;;;;;;;6.29;63.92;96732.48;105783;1288;27591;-83
2022/12/30 07:24:09;;;;;;;9.20;5.50;;;;;;;6.25;64.21;96733.66;105783;1294;23826;-83
2022/12/30 07:26:43;;;;;;;10.20;5.80;;;;;;;6.21;64.66;96736.52;105734;1302;22662;-83
2022/12/30 07:29:14;;;;;;;7.70;5.40;;;;;;;6.18;64.89;96737.25;105654;1302;75726;-83
2022/12/30 07:31:46;;;;;;;8.40;5.30;;;;;;;6.15;65.29;96743.28;105680;1295;25047;-83
2022/12/30 07:34:17;;;;;;;8.90;5.20;;;;;;;6.13;65.54;96747.31;105794;1303;24318;-82
2022/12/30 07:36:48;;;;;;;7.80;4.80;;;;;;;6.12;65.76;96751.09;105785;1302;22463;-83
2022/12/30 07:39:22;;;;;;;8.50;5.40;;;;;;;6.11;66.07;96748.92;105671;1290;50315;-84
2022/12/30 07:41:53;;;;;;;9.50;5.60;;;;;;;6.09;66.30;96756.91;105715;1301;28498;-83
2022/12/30 07:44:25;;;;;;;8.00;5.00;;;;;;;6.09;66.72;96754.44;105716;1302;23198;-83
2022/12/30 07:46:57;;;;;;;9.40;5.70;;;;;;;6.11;66.90;96760.61;105676;1293;22500;-83
2022/12/30 07:49:29;;;;;;;11.50;6.50;;;;;;;6.12;67.35;96770.46;105639;1302;30223;-83
2022/12/30 07:52:02;;;;;;;9.80;6.30;;;;;;;6.02;68.18;96772.70;105738;1278;27719;-83
2022/12/30 07:54:34;;;;;;;10.30;7.10;;;;;;;5.98;68.33;96773.98;105713;1295;24257;-83
2022/12/30 07:57:06;;;;;;;11.10;7.70;;;;;;;5.97;69.25;96775.96;105740;1301;22501;-83
2022/12/30 07:59:38;;;;;;;10.70;5.90;;;;;;;5.95;69.10;96777.00;105666;1302;55940;-83
2022/12/30 08:02:12;;;;;;;10.00;6.30;;;;;;;5.98;69.20;96775.40;105818;1295;22503;-83
2022/12/30 08:04:44;;;;;;;10.60;6.60;;;;;;;6.01;69.19;96781.73;105731;1302;24872;-83
2022/12/30 08:07:16;;;;;;;13.40;7.40;;;;;;;6.02;69.51;96792.39;105786;1287;25916;-83
2022/12/30 08:09:47;;;;;;;11.40;6.70;;;;;;;6.02;70.11;96795.86;105766;1301;28944;-84
2022/12/30 08:12:18;;;;;;;13.80;10.20;;;;;;;6.01;70.63;96804.90;105683;1302;22600;-84
2022/12/30 08:14:50;;;;;;;12.40;8.20;;;;;;;6.00;71.10;96813.05;105742;1281;22486;-84
2022/12/30 08:17:22;;;;;;;8.10;5.40;;;;;;;5.99;72.26;96816.09;105779;1303;25488;-83
2022/12/30 08:19:53;;;;;;;10.60;6.90;;;;;;;6.02;71.31;96818.03;105646;1302;23644;-83
2022/12/30 08:22:24;;;;;;;9.90;6.10;;;;;;;6.12;71.21;96819.73;105786;1302;22499;-84
2022/12/30 08:24:55;;;;;;;8.50;5.10;;;;;;;6.21;70.78;96820.95;105675;1278;22525;-85
2022/12/30 08:27:27;;;;;;;10.00;6.20;;;;;;;6.28;71.07;96820.88;105633;1302;22635;-84
2022/12/30 08:30:00;;;;;;;9.30;5.50;;;;;;;6.33;71.26;96821.15;105737;1301;31834;-83
2022/12/30 08:32:32;;;;;;;7.30;4.70;;;;;;;6.38;70.61;96823.16;105838;1293;22480;-84
2022/12/30 08:35:03;;;;;;;8.60;5.10;;;;;;;6.44;70.22;96831.11;105817;1301;22583;-84
2022/12/30 08:37:36;;;;;;;8.10;4.70;;;;;;;6.50;70.19;96833.27;105811;1278;23941;-84
2022/12/30 08:40:09;;;;;;;8.00;4.80;;;;;;;6.57;69.84;96836.48;105805;1301;26377;-83
2022/12/30 08:42:41;;;;;;;6.90;5.00;;;;;;;6.61;69.73;96839.08;105854;1303;22512;-84
2022/12/30 08:45:13;;;;;;;8.60;5.10;;;;;;;6.65;69.87;96841.55;105825;1303;22505;-84
2022/12/30 08:47:44;;;;;;;8.00;4.80;;;;;;;6.68;69.60;96848.63;105731;1288;24054;-84
2022/12/30 08:50:15;;;;;;;7.80;5.10;;;;;;;6.74;69.55;96851.21;105700;1302;22498;-84
2022/12/30 08:52:46;;;;;;;8.80;5.40;;;;;;;6.78;69.79;96852.96;105769;1301;22464;-84
2022/12/30 08:55:18;;;;;;;8.80;4.50;;;;;;;6.82;69.87;96851.35;105747;1302;24485;-83
2022/12/30 08:57:50;;;;;;;8.70;4.00;;;;;;;6.88;69.23;96855.46;105750;1295;22472;-83
2022/12/30 09:00:21;;;;;;;7.50;4.80;;;;;;;6.95;68.98;96855.66;105624;1291;41004;-83
2022/12/30 09:02:53;;;;;;;8.10;5.00;;;;;;;6.99;69.44;96857.69;105726;1303;23964;-84
2022/12/30 09:05:24;;;;;;;9.80;4.90;;;;;;;7.00;69.43;96859.39;105668;1302;22474;-84
2022/12/30 09:07:58;;;;;;;8.90;4.90;;;;;;;7.02;69.27;96863.67;105715;1292;22861;-84
2022/12/30 09:10:29;;;;;;;9.10;5.70;;;;;;;7.03;69.49;96868.79;105626;1302;49531;-84
2022/12/30 09:13:00;;;;;;;8.30;5.10;;;;;;;7.02;69.82;96873.36;105753;1302;23833;-84
2022/12/30 09:15:32;;;;;;;9.10;5.20;;;;;;;6.99;69.33;96879.09;105772;1297;22628;-84
2022/12/30 09:18:03;;;;;;;7.60;4.60;;;;;;;6.98;69.20;96878.35;105749;1303;22567;-84
2022/12/30 09:20:34;;;;;;;9.30;5.40;;;;;;;6.97;69.66;96875.76;105609;1302;62640;-84
2022/12/30 09:23:05;;;;;;;8.90;5.30;;;;;;;6.93;69.40;96872.45;105756;1301;22489;-84
2022/12/30 09:25:36;;;;;;;7.40;4.90;;;;;;;6.89;69.50;96874.30;105743;1296;22461;-85
2022/12/30 09:28:08;;;;;;;7.90;4.70;;;;;;;6.85;69.68;96872.94;105823;1301;22451;-84
2022/12/30 09:30:39;;;;;;;6.70;4.40;;;;;;;6.84;69.86;96872.92;105668;1303;26443;-84
2022/12/30 09:33:10;;;;;;;6.70;4.40;;;;;;;6.82;69.73;96872.86;105752;1302;22468;-84
2022/12/30 09:35:42;;;;;;;8.50;4.40;;;;;;;6.83;69.64;96874.61;105784;1295;24925;-84
2022/12/30 09:38:13;;;;;;;8.10;4.70;;;;;;;6.85;69.80;96871.89;105792;1282;25465;-84
2022/12/30 09:40:54;;;;;;;9.60;5.00;;;;;;;6.86;69.85;96873.15;105735;1279;55672;-84
2022/12/30 09:43:32;;;;;;;8.50;4.80;;;;;;;6.87;69.75;96872.20;105823;1293;22500;-84
2022/12/30 09:46:22;;;;;;;8.20;4.60;;;;;;;6.86;69.92;96865.30;105765;1302;23254;-84
2022/12/30 09:48:58;;;;;;;7.20;5.00;;;;;;;6.87;69.78;96862.09;105624;1300;24434;-84
2022/12/30 09:51:35;;;;;;;8.80;5.70;;;;;;;6.89;69.60;96856.05;105647;1294;73899;-84
2022/12/30 09:54:11;;;;;;;9.50;6.10;;;;;;;6.89;69.46;96853.88;105742;1294;24254;-84
2022/12/30 09:56:49;;;;;;;9.60;5.30;;;;;;;6.89;69.44;96852.55;105741;1293;24228;-84
2022/12/30 09:59:25;;;;;;;8.60;5.50;;;;;;;6.88;69.35;96851.73;105689;1290;26076;-83
2022/12/30 10:02:08;;;;;;;11.00;6.80;;;;;;;6.89;69.40;96847.81;105709;1284;24732;-84
2022/12/30 10:04:39;;;;;;;10.30;6.50;;;;;;;6.89;69.36;96839.23;105719;1302;24486;-83
2022/12/30 10:07:18;;;;;;;9.60;5.80;;;;;;;6.91;69.48;96834.70;105746;1302;22532;-84
2022/12/30 10:09:57;;;;;;;11.00;7.30;;;;;;;6.95;69.64;96831.56;105766;1298;36968;-84
2022/12/30 10:12:53;;;;;;;9.90;6.50;;;;;;;6.97;69.52;96831.15;105752;1295;22484;-84
2022/12/30 10:15:37;;;;;;;9.10;5.40;;;;;;;7.01;69.26;96831.61;105742;1286;22473;-84
2022/12/30 10:18:37;;;;;;;8.30;5.10;;;;;;;7.08;69.02;96828.89;105772;1300;25247;-83
2022/12/30 10:21:20;;;;;;;8.90;5.70;;;;;;;7.15;68.46;96827.58;105684;1301;22474;-84
2022/12/30 10:24:05;;;;;;;7.90;5.30;;;;;;;7.18;68.56;96821.02;105706;1294;24228;-84
2022/12/30 10:26:43;;;;;;;9.10;5.60;;;;;;;7.21;68.44;96821.36;105662;1303;23782;-84
2022/12/30 10:29:19;;;;;;;10.90;5.50;;;;;;;7.25;68.45;96821.33;105624;1294;52543;-83
2022/12/30 10:31:53;;;;;;;9.30;5.30;;;;;;;7.29;68.34;96818.52;105709;1294;22528;-83
2022/12/30 10:34:29;;;;;;;10.70;6.50;;;;;;;7.34;68.22;96815.77;105685;1284;22470;-83
2022/12/30 10:37:03;;;;;;;8.80;5.40;;;;;;;7.37;68.04;96814.33;105720;1284;22514;-84
2022/12/30 10:39:37;;;;;;;10.30;5.30;;;;;;;7.39;67.90;96814.59;105668;1295;22647;-84
2022/12/30 10:42:31;;;;;;;10.30;5.70;;;;;;;7.41;67.46;96817.77;105675;1298;55644;-84
2022/12/30 10:45:18;;;;;;;8.80;5.50;;;;;;;7.45;67.44;96824.81;105691;1302;25069;-83
2022/12/30 10:48:01;;;;;;;10.10;5.70;;;;;;;7.49;67.37;96814.93;105717;1301;22561;-83
2022/12/30 10:50:40;;;;;;;9.20;5.60;;;;;;;7.52;67.48;96806.62;105709;1296;22531;-84
2022/12/30 10:53:17;;;;;;;9.70;5.80;;;;;;;7.60;67.66;96805.71;105720;1301;22497;-84
2022/12/30 10:55:51;;;;;;;9.20;5.30;;;;;;;7.74;68.02;96817.95;105739;1278;22504;-84
2022/12/30 10:58:30;;;;;;;9.30;5.70;;;;;;;7.83;67.98;96814.56;105723;1285;23872;-84
2022/12/30 11:01:02;;;;;;;8.80;5.40;;;;;;;7.88;68.01;96814.74;105674;1294;25417;-84
2022/12/30 11:03:43;;;;;;;9.80;5.30;;;;;;;7.89;68.22;96817.84;105713;1295;25324;-85
2022/12/30 11:06:26;;;;;;;10.30;6.00;;;;;;;7.91;68.28;96818.90;105706;1285;22514;-84
2022/12/30 11:09:18;;;;;;;10.00;6.20;;;;;;;7.91;68.30;96819.85;105718;1280;57738;-85
2022/12/30 11:15:04;;;;;;;9.80;5.60;;;;;;;7.83;68.73;96813.45;105450;1303;22471;-85
2022/12/30 11:17:41;;;;;;;10.10;5.80;;;;;;;7.80;68.95;96810.23;105766;1284;23832;-86
2022/12/30 11:20:28;;;;;;;9.50;6.20;;;;;;;7.80;69.23;96812.91;105601;1301;61483;-85
2022/12/30 11:23:02;;;;;;;9.80;6.00;;;;;;;7.79;69.35;96811.91;105724;1302;22616;-85
2022/12/30 11:25:37;;;;;;;9.70;5.60;;;;;;;7.82;69.57;96815.40;105951;1300;22498;-86
2022/12/30 11:28:16;;;;;;;10.50;5.10;;;;;;;7.85;69.60;96820.42;106216;1303;22511;-86
2022/12/30 11:30:59;;;;;;;9.50;5.90;;;;;;;7.83;69.38;96819.31;105785;1303;70211;-85
2022/12/30 11:33:34;;;;;;;8.80;6.00;;;;;;;7.84;69.47;96813.67;105807;1303;22471;-84
2022/12/30 11:36:22;;;;;;;11.30;8.10;;;;;;;7.86;69.37;96819.80;105739;1302;23729;-85
2022/12/30 11:38:54;;;;;;;14.10;8.00;;;;;;;7.86;69.45;96824.09;105656;1302;24238;-85
2022/12/30 11:41:30;;;;;;;14.10;9.00;;;;;;;7.85;69.39;96826.39;105634;1281;51470;-85
2022/12/30 11:44:25;;;;;;;11.80;8.80;;;;;;;7.82;69.58;96827.28;105686;1300;22512;-85
2022/12/30 11:47:00;;;;;;;13.40;9.00;;;;;;;7.80;69.97;96828.44;105681;1303;25247;-85
2022/12/30 11:49:36;;;;;;;11.60;6.30;;;;;;;7.85;69.68;96832.41;105715;1303;27147;-85
2022/12/30 11:52:20;;;;;;;15.40;7.80;;;;;;;7.98;69.94;96831.86;105787;1302;25379;-85
2022/12/30 11:54:57;;;;;;;10.80;7.20;;;;;;;8.34;69.98;96833.33;105675;1302;22529;-85
2022/12/30 11:57:32;;;;;;;10.70;6.10;;;;;;;8.68;69.50;96827.76;105613;1302;22474;-85
2022/12/30 12:00:06;;;;;;;10.30;6.80;;;;;;;8.87;68.48;96827.80;105638;1303;48025;-86
2022/12/30 12:02:40;;;;;;;9.40;6.30;;;;;;;9.03;68.51;96824.98;105745;1303;22723;-86
2022/12/30 12:05:30;;;;;;;10.50;6.60;;;;;;;9.09;67.75;96826.67;105654;1298;22464;-86
2022/12/30 12:08:13;;;;;;;10.10;6.30;;;;;;;9.09;67.66;96827.94;105716;1301;22493;-85
2022/12/30 12:10:52;;;;;;;10.00;6.30;;;;;;;9.15;67.73;96827.64;105661;1287;83336;-86
2022/12/30 12:13:32;;;;;;;10.40;6.60;;;;;;;9.19;67.53;96827.96;105840;1299;22520;-85
2022/12/30 12:16:04;;;;;;;11.20;6.60;;;;;;;9.29;67.36;96829.65;105764;1281;25264;-86
2022/12/30 12:18:43;;;;;;;10.30;6.00;;;;;;;9.31;67.01;96827.02;105759;1303;27647;-86
2022/12/30 12:21:25;;;;;;;9.30;5.70;;;;;;;9.30;66.96;96830.52;105698;1288;23319;-86
2022/12/30 12:24:06;;;;;;;14.70;10.20;;;;;;;9.29;67.10;96829.86;105509;1286;23108;-86
2022/12/30 12:26:44;;;;;;;17.60;13.30;;;;;;;9.21;67.68;96829.33;105649;1303;25509;-86
2022/12/30 12:29:17;;;;;;;19.50;13.70;;;;;;;9.12;68.05;96830.95;105622;1300;26429;-85
2022/12/30 12:32:07;;;;;;;20.10;14.20;;;;;;;9.05;68.14;96839.10;105754;1288;23954;-85
2022/12/30 12:34:48;;;;;;;19.60;13.10;;;;;;;8.98;68.27;96845.42;105696;1302;25460;-85
2022/12/30 12:37:33;;;;;;;20.20;13.10;;;;;;;8.87;68.34;96841.81;105689;1303;22468;-86
2022/12/30 12:40:26;;;;;;;15.60;11.40;;;;;;;8.75;68.35;96845.48;105669;1306;25471;-86
2022/12/30 12:43:14;;;;;;;18.00;10.90;;;;;;;8.60;68.15;96849.92;105695;1306;22508;-85
2022/12/30 12:46:02;;;;;;;19.80;12.70;;;;;;;8.48;68.38;96857.39;105722;1297;22873;-85
2022/12/30 12:48:53;;;;;;;19.30;12.20;;;;;;;8.44;68.44;96862.86;105702;1302;31207;-85
2022/12/30 12:51:40;;;;;;;21.60;13.10;;;;;;;8.43;68.59;96864.38;105468;1306;27375;-85
2022/12/30 12:54:33;;;;;;;18.50;12.00;;;;;;;8.42;68.80;96868.39;105730;1293;22493;-85
2022/12/30 12:57:13;;;;;;;16.40;11.10;;;;;;;8.39;68.65;96864.36;105683;1303;22560;-85
2022/12/30 13:00:07;;;;;;;22.20;14.30;;;;;;;8.32;68.72;96868.34;105559;1305;64955;-84
2022/12/30 13:03:05;;;;;;;23.80;16.00;;;;;;;8.28;68.96;96866.13;105655;1281;22491;-85
2022/12/30 13:05:43;;;;;;;22.50;15.20;;;;;;;8.15;69.10;96865.34;105586;1303;22852;-86